createdAt,value
2023-04-06T00:01:03.912Z,7.50
2023-04-06T00:03:30.937Z,7.03
2023-04-06T00:05:57.808Z,7.90
2023-04-06T00:08:25.013Z,8.85
2023-04-06T00:10:51.809Z,7.32
2023-04-06T00:13:18.540Z,7.75
2023-04-06T00:15:45.488Z,8.60
2023-04-06T00:18:12.539Z,7.25
2023-04-06T00:20:39.489Z,11.68
2023-04-06T00:23:06.667Z,13.45
2023-04-06T00:25:33.440Z,11.80
2023-04-06T00:28:00.597Z,9.52
2023-04-06T00:30:27.291Z,11.02
2023-04-06T00:32:54.097Z,10.80
2023-04-06T00:35:21.184Z,10.20
2023-04-06T00:37:49.276Z,10.77
2023-04-06T00:40:16.724Z,10.10
2023-04-06T00:42:43.518Z,9.65
2023-04-06T00:45:11.101Z,9.23
2023-04-06T00:47:38.136Z,8.57
2023-04-06T00:50:05.794Z,8.70
2023-04-06T00:52:32.578Z,8.40
2023-04-06T00:54:59.324Z,7.80
2023-04-06T00:57:26.065Z,7.97
2023-04-06T00:59:54.117Z,8.52
2023-04-06T01:02:21.071Z,7.75
2023-04-06T01:04:47.827Z,7.95
2023-04-06T01:07:14.544Z,7.40
2023-04-06T01:09:43.220Z,7.80
2023-04-06T01:12:10.264Z,7.78
2023-04-06T01:14:37.009Z,7.78
2023-04-06T01:17:03.910Z,7.85
2023-04-06T01:19:30.645Z,7.80
2023-04-06T01:21:57.504Z,8.40
2023-04-06T01:24:24.378Z,7.72
2023-04-06T01:26:51.083Z,8.05
2023-04-06T01:29:17.855Z,8.15
2023-04-06T01:31:44.592Z,8.07
2023-04-06T01:34:11.534Z,8.40
2023-04-06T01:36:38.277Z,8.45
2023-04-06T01:39:05.082Z,8.65
2023-04-06T01:41:32.185Z,8.75
2023-04-06T01:43:59.076Z,9.43
2023-04-06T01:46:25.921Z,9.07
2023-04-06T01:48:53.514Z,8.55
2023-04-06T01:51:20.911Z,8.50
2023-04-06T01:53:47.814Z,8.60
2023-04-06T01:56:14.635Z,8.52
2023-04-06T01:58:41.419Z,8.70
2023-04-06T02:01:08.347Z,8.77
2023-04-06T02:03:35.272Z,8.65
2023-04-06T02:06:02.010Z,8.70
2023-04-06T02:08:28.712Z,8.57
2023-04-06T02:10:55.482Z,7.78
2023-04-06T02:13:22.286Z,8.18
2023-04-06T02:15:49.148Z,9.07
2023-04-06T02:18:16.618Z,7.72
2023-04-06T02:20:43.589Z,8.38
2023-04-06T02:23:10.548Z,7.95
2023-04-06T02:25:37.601Z,8.23
2023-04-06T02:28:04.754Z,7.95
2023-04-06T02:30:33.090Z,7.65
2023-04-06T02:33:01.702Z,7.88
2023-04-06T02:35:29.738Z,8.20
2023-04-06T02:37:56.603Z,8.00
2023-04-06T02:40:23.572Z,8.77
2023-04-06T02:42:50.302Z,8.00
2023-04-06T02:45:17.528Z,7.57
2023-04-06T02:47:44.296Z,7.57
2023-04-06T02:50:11.407Z,7.45
2023-04-06T02:52:38.252Z,7.80
2023-04-06T02:55:05.969Z,7.85
2023-04-06T02:57:32.789Z,8.07
2023-04-06T02:59:59.600Z,7.97
2023-04-06T03:02:26.909Z,8.05
2023-04-06T03:04:53.709Z,8.32
2023-04-06T03:07:20.574Z,8.02
2023-04-06T03:09:47.388Z,7.90
2023-04-06T03:12:14.136Z,8.02
2023-04-06T03:14:40.882Z,8.60
2023-04-06T03:17:07.733Z,7.88
2023-04-06T03:19:34.442Z,8.63
2023-04-06T03:22:01.902Z,8.73
2023-04-06T03:24:28.702Z,8.15
2023-04-06T03:26:56.249Z,8.65
2023-04-06T03:29:23.208Z,9.05
2023-04-06T03:31:49.995Z,9.25
2023-04-06T03:34:17.125Z,8.80
2023-04-06T03:36:44.222Z,8.95
2023-04-06T03:39:11.075Z,9.32
2023-04-06T03:41:37.875Z,9.02
2023-04-06T03:44:04.871Z,8.52
2023-04-06T03:46:31.652Z,9.13
2023-04-06T03:48:58.598Z,9.30
2023-04-06T03:51:25.361Z,9.02
2023-04-06T03:53:52.654Z,8.98
2023-04-06T03:56:19.450Z,8.45
2023-04-06T03:58:46.761Z,9.10
2023-04-06T04:01:14.112Z,8.40
2023-04-06T04:03:41.070Z,8.82
2023-04-06T04:06:07.939Z,8.45
2023-04-06T04:08:34.999Z,8.75
2023-04-06T04:11:01.822Z,8.77
2023-04-06T04:13:28.889Z,9.27
2023-04-06T04:15:55.648Z,8.85
2023-04-06T04:18:22.796Z,8.75
2023-04-06T04:20:49.561Z,9.18
2023-04-06T04:23:16.910Z,9.50
2023-04-06T04:25:44.989Z,9.45
2023-04-06T04:28:12.308Z,9.68
2023-04-06T04:30:39.051Z,9.27
2023-04-06T04:33:06.059Z,9.80
2023-04-06T04:35:32.784Z,9.57
2023-04-06T04:37:59.534Z,9.38
2023-04-06T04:40:26.414Z,10.05
2023-04-06T04:42:53.146Z,9.43
2023-04-06T04:45:20.018Z,9.68
2023-04-06T04:47:46.770Z,9.43
2023-04-06T04:50:13.498Z,9.65
2023-04-06T04:52:40.252Z,9.40
2023-04-06T04:55:07.387Z,10.00
2023-04-06T04:57:34.198Z,9.43
2023-04-06T05:00:01.036Z,9.63
2023-04-06T05:02:27.989Z,9.48
2023-04-06T05:04:54.879Z,9.68
2023-04-06T05:07:22.137Z,9.90
2023-04-06T05:09:49.221Z,9.73
2023-04-06T05:12:16.460Z,9.85
2023-04-06T05:14:43.385Z,9.90
2023-04-06T05:17:10.286Z,9.65
2023-04-06T05:19:37.102Z,9.23
2023-04-06T05:22:03.944Z,9.35
2023-04-06T05:24:30.728Z,9.45
2023-04-06T05:26:57.498Z,10.05
2023-04-06T05:29:24.334Z,10.20
2023-04-06T05:31:52.392Z,10.43
2023-04-06T05:34:19.194Z,10.63
2023-04-06T05:36:45.914Z,10.55
2023-04-06T05:39:13.738Z,10.48
2023-04-06T05:41:40.672Z,10.60
2023-04-06T05:44:07.480Z,10.88
2023-04-06T05:46:34.325Z,10.80
2023-04-06T05:49:01.608Z,10.88
2023-04-06T05:51:28.705Z,10.80
2023-04-06T05:53:55.467Z,10.45
2023-04-06T05:56:22.294Z,10.70
2023-04-06T05:58:49.052Z,10.50
2023-04-06T06:01:16.539Z,10.45
2023-04-06T06:03:43.460Z,10.63
2023-04-06T06:06:10.247Z,10.05
2023-04-06T06:08:37.340Z,10.73
2023-04-06T06:11:04.602Z,11.30
2023-04-06T06:13:31.447Z,11.20
2023-04-06T06:15:58.658Z,10.85
2023-04-06T06:18:25.785Z,11.32
2023-04-06T06:20:52.535Z,11.27
2023-04-06T06:23:19.257Z,10.95
2023-04-06T06:25:46.426Z,11.60
2023-04-06T06:28:13.622Z,11.60
2023-04-06T06:30:40.357Z,11.45
2023-04-06T06:33:07.248Z,11.95
2023-04-06T06:35:34.003Z,12.07
2023-04-06T06:38:01.031Z,11.95
2023-04-06T06:40:28.693Z,13.40
2023-04-06T06:42:55.535Z,12.60
2023-04-06T06:45:22.614Z,11.63
2023-04-06T06:47:49.573Z,11.98
2023-04-06T06:50:16.551Z,11.98
2023-04-06T06:52:44.304Z,13.27
2023-04-06T06:55:12.145Z,16.80
2023-04-06T06:57:39.832Z,17.65
2023-04-06T07:00:09.424Z,15.48
2023-04-06T07:02:37.526Z,12.13
2023-04-06T07:05:16.051Z,10.02
2023-04-06T07:07:51.168Z,10.10
2023-04-06T07:10:17.906Z,9.25
2023-04-06T07:12:44.810Z,9.68
2023-04-06T07:15:12.280Z,9.07
2023-04-06T07:17:39.060Z,9.80
2023-04-06T07:20:07.007Z,9.32
2023-04-06T07:22:33.774Z,8.85
2023-04-06T07:25:00.551Z,9.20
2023-04-06T07:27:27.517Z,9.27
2023-04-06T07:29:54.199Z,7.60
2023-04-06T07:32:21.069Z,8.13
2023-04-06T07:34:48.171Z,7.80
2023-04-06T07:37:14.996Z,8.82
2023-04-06T07:39:41.976Z,7.80
2023-04-06T07:42:08.780Z,6.60
2023-04-06T07:44:35.582Z,6.43
2023-04-06T07:47:02.366Z,6.70
2023-04-06T07:49:29.199Z,7.22
2023-04-06T07:51:56.195Z,7.10
2023-04-06T07:54:22.910Z,7.07
2023-04-06T07:56:49.638Z,7.15
2023-04-06T07:59:16.830Z,7.20
2023-04-06T08:01:43.650Z,7.47
2023-04-06T08:04:10.991Z,6.60
2023-04-06T08:06:38.012Z,6.68
2023-04-06T08:09:04.781Z,7.38
2023-04-06T08:11:31.546Z,6.60
2023-04-06T08:13:58.877Z,7.55
2023-04-06T08:16:25.969Z,7.07
2023-04-06T08:18:52.694Z,6.90
2023-04-06T08:21:19.663Z,7.00
2023-04-06T08:23:47.379Z,6.65
2023-04-06T08:26:14.396Z,6.68
2023-04-06T08:28:41.251Z,6.22
2023-04-06T08:31:08.286Z,7.00
2023-04-06T08:33:40.501Z,6.68
2023-04-06T08:36:15.164Z,6.45
2023-04-06T08:38:44.072Z,6.35
2023-04-06T08:41:14.961Z,7.03
2023-04-06T08:43:49.569Z,7.05
2023-04-06T08:46:16.752Z,9.23
2023-04-06T08:48:44.251Z,6.57
2023-04-06T08:51:14.782Z,6.47
2023-04-06T08:53:42.135Z,7.35
2023-04-06T08:56:11.326Z,7.05
2023-04-06T08:58:40.906Z,7.28
2023-04-06T09:01:10.204Z,6.80
2023-04-06T09:03:41.809Z,6.25
2023-04-06T09:06:09.666Z,6.82
2023-04-06T09:08:37.532Z,7.18
2023-04-06T09:11:04.744Z,6.90
2023-04-06T09:13:32.229Z,7.35
2023-04-06T09:16:03.540Z,7.70
2023-04-06T09:18:34.969Z,7.40
2023-04-06T09:21:06.717Z,6.50
2023-04-06T09:23:33.674Z,6.93
2023-04-06T09:26:12.404Z,6.72
2023-04-06T09:28:43.759Z,7.05
2023-04-06T09:31:13.445Z,7.03
2023-04-06T09:33:43.028Z,7.07
2023-04-06T09:36:12.668Z,7.22
2023-04-06T09:38:52.094Z,7.28
2023-04-06T09:41:26.799Z,7.25
2023-04-06T09:44:02.615Z,7.10
2023-04-06T09:46:43.009Z,6.88
2023-04-06T09:49:19.035Z,6.68
2023-04-06T09:51:55.649Z,6.93
2023-04-06T09:54:24.521Z,6.70
2023-04-06T09:57:22.274Z,7.40
2023-04-06T10:00:05.273Z,6.60
2023-04-06T10:03:21.766Z,6.97
2023-04-06T10:05:53.899Z,7.07
2023-04-06T10:08:26.667Z,7.25
2023-04-06T10:10:55.030Z,7.38
2023-04-06T10:13:22.235Z,7.32
2023-04-06T10:15:49.591Z,7.95
2023-04-06T10:18:17.243Z,7.22
2023-04-06T10:20:58.960Z,7.13
2023-04-06T10:23:32.708Z,7.63
2023-04-06T10:26:03.898Z,7.97
2023-04-06T10:28:37.094Z,8.10
2023-04-06T10:31:06.979Z,7.50
2023-04-06T10:33:34.880Z,7.45
2023-04-06T10:36:23.781Z,7.68
2023-04-06T10:38:56.821Z,8.32
2023-04-06T10:41:23.957Z,7.68
2023-04-06T10:43:58.032Z,8.07
2023-04-06T10:46:29.746Z,8.35
2023-04-06T10:48:57.529Z,8.25
2023-04-06T10:51:29.374Z,8.15
2023-04-06T10:53:57.159Z,8.30
2023-04-06T10:56:30.472Z,7.97
2023-04-06T10:59:01.265Z,7.75
2023-04-06T11:01:29.069Z,8.50
2023-04-06T11:03:59.399Z,8.70
2023-04-06T11:06:32.630Z,7.95
2023-04-06T11:08:59.689Z,9.00
2023-04-06T11:11:28.174Z,8.18
2023-04-06T11:13:57.665Z,7.72
2023-04-06T11:16:25.719Z,7.65
2023-04-06T11:19:03.234Z,8.10
2023-04-06T11:21:48.982Z,7.97
2023-04-06T11:24:23.457Z,7.90
2023-04-06T11:26:56.284Z,7.57
2023-04-06T11:29:29.408Z,7.47
2023-04-06T11:32:04.300Z,8.73
2023-04-06T11:34:32.283Z,7.38
2023-04-06T11:37:01.126Z,7.65
2023-04-06T11:39:29.675Z,7.28
2023-04-06T11:42:01.721Z,6.88
2023-04-06T11:44:36.943Z,6.20
2023-04-06T11:47:04.941Z,6.60
2023-04-06T11:49:33.134Z,6.72
2023-04-06T11:52:01.257Z,7.10
2023-04-06T11:54:42.192Z,7.50
2023-04-06T11:57:10.004Z,7.30
2023-04-06T11:59:37.401Z,8.07
2023-04-06T12:02:05.479Z,6.68
2023-04-06T12:04:32.682Z,6.90
2023-04-06T12:06:59.814Z,6.90
2023-04-06T12:09:26.715Z,7.30
2023-04-06T12:11:53.434Z,6.60
2023-04-06T12:14:21.354Z,7.72
2023-04-06T12:16:48.655Z,8.07
2023-04-06T12:19:15.787Z,6.63
2023-04-06T12:21:43.913Z,5.97
2023-04-06T12:24:10.779Z,5.97
2023-04-06T12:26:38.650Z,5.97
2023-04-06T12:29:09.084Z,6.32
2023-04-06T12:31:37.635Z,6.13
2023-04-06T12:34:05.104Z,5.60
2023-04-06T12:36:32.652Z,6.57
2023-04-06T12:38:59.598Z,6.05
2023-04-06T12:41:26.934Z,5.90
2023-04-06T12:43:53.789Z,6.10
2023-04-06T12:46:23.670Z,5.80
2023-04-06T12:48:58.932Z,6.00
2023-04-06T12:51:29.811Z,5.47
2023-04-06T12:53:57.053Z,5.57
2023-04-06T12:56:24.146Z,5.78
2023-04-06T12:58:52.992Z,5.38
2023-04-06T13:01:20.068Z,6.07
2023-04-06T13:03:47.101Z,6.35
2023-04-06T13:06:16.106Z,6.07
2023-04-06T13:08:44.094Z,6.03
2023-04-06T13:11:11.255Z,5.80
2023-04-06T13:13:38.476Z,5.50
2023-04-06T13:16:08.189Z,5.40
2023-04-06T13:18:35.976Z,5.30
2023-04-06T13:21:02.897Z,5.32
2023-04-06T13:23:29.756Z,5.32
2023-04-06T13:26:04.446Z,5.25
2023-04-06T13:28:32.188Z,4.85
2023-04-06T13:31:01.020Z,5.45
2023-04-06T13:33:28.072Z,5.00
2023-04-06T13:35:55.077Z,5.20
2023-04-06T13:38:22.122Z,5.38
2023-04-06T13:40:51.048Z,5.35
2023-04-06T13:43:21.083Z,5.03
2023-04-06T13:45:52.216Z,5.50
2023-04-06T13:48:19.825Z,5.45
2023-04-06T13:50:47.274Z,6.13
2023-04-06T13:53:17.678Z,5.80
2023-04-06T13:55:54.271Z,5.53
2023-04-06T13:58:21.276Z,5.57
2023-04-06T14:00:48.444Z,5.25
2023-04-06T14:03:18.885Z,4.95
2023-04-06T14:05:46.706Z,4.80
2023-04-06T14:08:13.466Z,4.90
2023-04-06T14:10:41.697Z,5.65
2023-04-06T14:13:09.365Z,5.90
2023-04-06T14:15:36.616Z,5.72
2023-04-06T14:18:03.716Z,5.60
2023-04-06T14:20:33.447Z,5.63
2023-04-06T14:23:04.058Z,5.35
2023-04-06T14:25:35.975Z,5.47
2023-04-06T14:28:03.400Z,5.70
2023-04-06T14:30:31.784Z,5.68
2023-04-06T14:32:59.484Z,5.13
2023-04-06T14:35:26.744Z,5.40
2023-04-06T14:37:54.041Z,5.43
2023-04-06T14:40:20.746Z,5.00
2023-04-06T14:42:47.866Z,4.82
2023-04-06T14:45:15.271Z,14.18
2023-04-06T14:47:42.046Z,4.63
2023-04-06T14:50:10.007Z,4.95
2023-04-06T14:52:37.631Z,7.25
2023-04-06T14:55:05.615Z,5.88
2023-04-06T14:57:32.541Z,5.30
2023-04-06T14:59:59.488Z,12.68
2023-04-06T15:02:27.051Z,6.97
2023-04-06T15:04:54.142Z,5.47
2023-04-06T15:07:21.808Z,4.55
2023-04-06T15:09:48.519Z,9.05
2023-04-06T15:12:15.260Z,9.23
2023-04-06T15:14:41.987Z,4.38
2023-04-06T15:17:08.701Z,4.88
2023-04-06T15:19:35.568Z,4.60
2023-04-06T15:22:02.335Z,6.43
2023-04-06T15:24:29.042Z,5.55
2023-04-06T15:26:57.171Z,4.80
2023-04-06T15:29:26.677Z,5.20
2023-04-06T15:31:53.482Z,4.97
2023-04-06T15:34:21.504Z,6.30
2023-04-06T15:36:48.280Z,4.55
2023-04-06T15:39:15.113Z,4.45
2023-04-06T15:41:41.809Z,5.20
2023-04-06T15:44:08.603Z,5.38
2023-04-06T15:46:36.336Z,4.50
2023-04-06T15:49:04.522Z,3.80
2023-04-06T15:51:32.118Z,3.67
2023-04-06T15:54:00.679Z,4.57
2023-04-06T15:56:27.405Z,4.78
2023-04-06T15:58:54.713Z,4.88
2023-04-06T16:01:21.685Z,4.82
2023-04-06T16:03:48.510Z,5.15
2023-04-06T16:06:16.065Z,5.00
2023-04-06T16:08:42.968Z,4.68
2023-04-06T16:11:10.509Z,5.00
2023-04-06T16:13:37.412Z,4.93
2023-04-06T16:16:05.841Z,5.13
2023-04-06T16:18:34.930Z,4.32
2023-04-06T16:21:03.927Z,4.13
2023-04-06T16:23:30.868Z,4.30
2023-04-06T16:26:01.058Z,4.55
2023-04-06T16:28:27.965Z,4.13
2023-04-06T16:30:55.348Z,4.25
2023-04-06T16:33:23.463Z,4.88
2023-04-06T16:35:50.314Z,5.22
2023-04-06T16:38:17.128Z,4.75
2023-04-06T16:40:43.907Z,5.30
2023-04-06T16:43:10.840Z,5.20
2023-04-06T16:45:38.775Z,5.90
2023-04-06T16:48:06.390Z,6.43
2023-04-06T16:50:33.888Z,6.32
2023-04-06T16:53:00.743Z,6.95
2023-04-06T16:55:27.464Z,6.35
2023-04-06T16:57:57.298Z,5.60
2023-04-06T17:00:24.246Z,6.15
2023-04-06T17:02:51.281Z,5.20
2023-04-06T17:05:24.932Z,5.50
2023-04-06T17:07:52.956Z,5.27
2023-04-06T17:10:28.639Z,5.80
2023-04-06T17:13:00.549Z,5.30
2023-04-06T17:15:28.647Z,5.80
2023-04-06T17:17:55.636Z,5.55
2023-04-06T17:20:22.833Z,5.50
2023-04-06T17:22:49.841Z,5.97
2023-04-06T17:25:16.951Z,5.55
2023-04-06T17:27:44.498Z,5.90
2023-04-06T17:30:12.503Z,5.00
2023-04-06T17:32:39.390Z,4.80
2023-04-06T17:35:06.597Z,4.30
2023-04-06T17:37:33.726Z,4.60
2023-04-06T17:40:00.795Z,4.60
2023-04-06T17:42:27.946Z,4.50
2023-04-06T17:44:54.632Z,4.35
2023-04-06T17:47:21.491Z,5.00
2023-04-06T17:49:49.346Z,5.13
2023-04-06T17:52:16.284Z,4.78
2023-04-06T17:54:43.306Z,4.65
2023-04-06T17:57:10.028Z,5.70
2023-04-06T17:59:36.787Z,4.95
2023-04-06T18:02:04.572Z,5.15
2023-04-06T18:04:31.587Z,5.95
2023-04-06T18:06:58.590Z,5.80
2023-04-06T18:11:53.244Z,5.80
2023-04-06T18:14:20.142Z,5.68
2023-04-06T18:16:46.845Z,6.80
2023-04-06T18:19:13.866Z,6.80
2023-04-06T18:21:40.558Z,6.72
2023-04-06T18:24:08.048Z,6.72
2023-04-06T18:26:37.338Z,7.05
2023-04-06T18:29:07.318Z,7.20
2023-04-06T18:31:37.484Z,7.40
2023-04-06T18:34:05.098Z,7.40
2023-04-06T18:36:32.235Z,7.20
2023-04-06T18:39:00.265Z,7.18
2023-04-06T18:41:29.981Z,7.57
2023-04-06T18:43:56.960Z,7.82
2023-04-06T18:46:25.214Z,7.50
2023-04-06T18:48:52.569Z,8.63
2023-04-06T18:51:19.481Z,9.88
2023-04-06T18:53:46.351Z,12.02
2023-04-06T18:56:19.022Z,11.23
2023-04-06T18:58:46.598Z,11.77
2023-04-06T19:01:29.412Z,11.45
2023-04-06T19:03:57.580Z,11.73
2023-04-06T19:06:27.623Z,7.22
2023-04-06T19:08:55.314Z,8.68
2023-04-06T19:11:25.436Z,7.07
2023-04-06T19:13:54.047Z,10.43
2023-04-06T19:16:21.030Z,7.10
2023-04-06T19:18:47.943Z,7.00
2023-04-06T19:21:19.573Z,6.80
2023-04-06T19:23:47.096Z,7.45
2023-04-06T19:26:15.364Z,6.97
2023-04-06T19:28:43.585Z,7.22
2023-04-06T19:31:13.998Z,6.82
2023-04-06T19:33:41.087Z,7.40
2023-04-06T19:36:08.727Z,7.07
2023-04-06T19:38:35.827Z,6.90
2023-04-06T19:41:02.723Z,7.90
2023-04-06T19:43:29.862Z,6.70
2023-04-06T19:45:56.914Z,7.18
2023-04-06T19:48:23.938Z,6.35
2023-04-06T19:50:53.987Z,5.78
2023-04-06T19:53:21.935Z,6.20
2023-04-06T19:55:48.757Z,5.43
2023-04-06T19:58:15.609Z,5.75
2023-04-06T20:00:42.427Z,5.82
2023-04-06T20:03:09.409Z,5.90
2023-04-06T20:05:36.583Z,6.05
2023-04-06T20:08:03.358Z,7.22
2023-04-06T20:10:30.998Z,9.93
2023-04-06T20:12:58.817Z,25.45
2023-04-06T20:15:25.752Z,24.05
2023-04-06T20:17:52.806Z,18.17
2023-04-06T20:20:19.663Z,17.40
2023-04-06T20:22:50.243Z,14.43
2023-04-06T20:25:18.446Z,13.85
2023-04-06T20:27:45.904Z,12.70
2023-04-06T20:30:16.332Z,13.00
2023-04-06T20:32:43.504Z,15.48
2023-04-06T20:35:10.437Z,12.50
2023-04-06T20:37:38.095Z,14.00
2023-04-06T20:40:05.899Z,11.40
2023-04-06T20:42:32.746Z,11.15
2023-04-06T20:44:59.770Z,10.05
2023-04-06T20:47:27.442Z,10.07
2023-04-06T20:49:54.816Z,8.63
2023-04-06T20:52:21.582Z,9.13
2023-04-06T20:54:48.915Z,8.93
2023-04-06T20:57:15.731Z,8.80
2023-04-06T20:59:42.714Z,8.43
2023-04-06T21:02:09.695Z,9.45
2023-04-06T21:04:37.352Z,8.75
2023-04-06T21:07:05.958Z,8.00
2023-04-06T21:09:36.038Z,7.85
2023-04-06T21:12:03.843Z,8.65
2023-04-06T21:14:30.846Z,9.00
2023-04-06T21:16:58.348Z,8.85
2023-04-06T21:19:28.230Z,9.32
2023-04-06T21:21:55.431Z,11.15
2023-04-06T21:24:22.296Z,11.35
2023-04-06T21:26:49.248Z,11.88
2023-04-06T21:29:16.202Z,12.35
2023-04-06T21:31:43.132Z,12.38
2023-04-06T21:34:13.669Z,12.32
2023-04-06T21:36:41.731Z,11.73
2023-04-06T21:39:08.984Z,12.10
2023-04-06T21:41:36.985Z,11.63
2023-04-06T21:44:03.974Z,14.68
2023-04-06T21:46:30.781Z,14.80
2023-04-06T21:48:57.489Z,16.05
2023-04-06T21:51:24.783Z,14.23
2023-04-06T21:53:54.534Z,13.52
2023-04-06T21:56:22.872Z,12.77
2023-04-06T21:58:50.465Z,11.30
2023-04-06T22:01:17.964Z,11.73
2023-04-06T22:03:45.642Z,11.45
2023-04-06T22:06:12.773Z,12.50
2023-04-06T22:08:39.568Z,11.98
2023-04-06T22:11:08.914Z,12.90
2023-04-06T22:13:36.467Z,12.52
2023-04-06T22:16:03.677Z,12.63
2023-04-06T22:18:31.444Z,11.52
2023-04-06T22:20:58.379Z,11.85
2023-04-06T22:23:26.032Z,11.20
2023-04-06T22:25:53.211Z,10.75
2023-04-06T22:28:20.027Z,10.95
2023-04-06T22:30:46.850Z,10.38
2023-04-06T22:33:13.679Z,11.60
2023-04-06T22:35:40.728Z,8.85
2023-04-06T22:38:07.718Z,10.57
2023-04-06T22:40:34.606Z,10.55
2023-04-06T22:43:01.928Z,10.48
2023-04-06T22:45:28.660Z,10.15
2023-04-06T22:47:55.835Z,9.02
2023-04-06T22:50:22.916Z,9.10
2023-04-06T22:52:50.080Z,8.70
2023-04-06T22:55:17.349Z,8.32
2023-04-06T22:57:44.172Z,8.55
2023-04-06T23:00:12.705Z,8.35
2023-04-06T23:02:39.699Z,8.23
2023-04-06T23:05:07.274Z,7.95
2023-04-06T23:07:36.110Z,8.05
2023-04-06T23:10:03.578Z,8.23
2023-04-06T23:12:30.706Z,7.90
2023-04-06T23:14:57.998Z,7.90
2023-04-06T23:17:25.182Z,7.65
2023-04-06T23:19:52.521Z,7.78
2023-04-06T23:22:19.461Z,7.93
2023-04-06T23:24:46.735Z,7.05
2023-04-06T23:27:13.543Z,7.45
2023-04-06T23:29:40.456Z,7.32
2023-04-06T23:32:11.851Z,7.05
2023-04-06T23:34:50.951Z,7.18
2023-04-06T23:37:21.016Z,6.97
2023-04-06T23:39:48.813Z,7.00
2023-04-06T23:42:16.014Z,7.53
2023-04-06T23:44:44.328Z,7.53
2023-04-06T23:47:12.423Z,7.10
2023-04-06T23:49:40.589Z,7.07
2023-04-06T23:52:08.455Z,7.30
2023-04-06T23:54:35.214Z,7.40
2023-04-06T23:57:02.354Z,7.95
2023-04-06T23:59:29.200Z,7.63
